Flight Track Log - Related Links

Times and Time Zones

All times are in EDT time to prevent confusion due to time zone crossing. See the AWE1675 flight status page for this flight to view local times or setup timezone preferences in your user account.

Time Position Orientation Groundspeed Altitude Reporting Facility
EDT Latitude Longitude Course Direction KTS MPH feet Rate Location/Type
Wed 10:35:15 AM 40.6757 -74.1970 158° South  Level FlightAware Approximate
Wed 10:36:00 AM 40.6500 -74.1833 229° Southwest 176 203 1,700  Level New York TRACON
Wed 10:37:00 AM 40.6167 -74.2333 270° West 236 272 4,000 2,750 Climbing New York TRACON
Wed 10:38:00 AM 40.6167 -74.3333 252° West 236 272 7,200 2,239 Climbing New York TRACON
Wed 10:40:29 AM 40.5639 -74.5436 247° West 276 318 11,800 2,029 Climbing New York Center
Wed 10:41:30 AM 40.5244 -74.6644 234° Southwest 318 366 14,300 2,479 Climbing New York Center
Wed 10:42:30 AM 40.4644 -74.7728 234° Southwest 359 413 16,800 2,542 Climbing New York Center
Wed 10:43:28 AM 40.4067 -74.8786 234° Southwest 366 421 19,300 2,017 Climbing New York Center
Wed 10:44:29 AM 40.3511 -74.9786 234° Southwest 379 436 20,800 1,918 Climbing New York Center
Wed 10:45:30 AM 40.2797 -75.1078 234° Southwest 398 458 23,200 2,083 Climbing New York Center
Wed 10:46:30 AM 40.2217 -75.2128 235° Southwest 398 458 25,000 1,650 Climbing New York Center
Wed 10:47:30 AM 40.1522 -75.3414 229° Southwest 398 458 26,500 1,765 Climbing New York Center
Wed 10:48:29 AM 40.0767 -75.4558 226° Southwest 409 471 28,500 1,916 Climbing New York Center
Wed 10:49:29 AM 39.9994 -75.5617 228° Southwest 409 471 30,300 1,240 Climbing New York Center
Wed 10:50:30 AM 39.9219 -75.6728 230° Southwest 415 478 31,000 793 Climbing New York Center
Wed 10:51:30 AM 39.8442 -75.7917 230° Southwest 429 494 31,900 504 Climbing New York Center
Wed 10:52:29 AM 39.7681 -75.9078 230° Southwest 435 501 32,000 50 Climbing New York Center
Wed 10:53:29 AM 39.7008 -76.0136 232° Southwest 440 506 32,000  Level New York Center
Wed 10:55:12 AM 39.5681 -76.2322 229° Southwest 433 498 32,000  Level Washington Center
Wed 10:56:13 AM 39.4883 -76.3525 231° Southwest 433 498 32,000  Level Washington Center
Wed 10:57:14 AM 39.4125 -76.4725 230° Southwest 444 511 32,000  Level Washington Center
Wed 10:58:12 AM 39.3408 -76.5844 231° Southwest 444 511 32,000  Level Washington Center
Wed 10:59:12 AM 39.2647 -76.7042 230° Southwest 444 511 32,000  Level Washington Center
Wed 11:00:13 AM 39.1864 -76.8233 230° Southwest 444 511 32,000  Level Washington Center
Wed 11:01:12 AM 39.1100 -76.9425 227° Southwest 444 511 32,000  Level Washington Center
Wed 11:02:14 AM 39.0231 -77.0639 220° Southwest 444 511 32,000  Level Washington Center
Wed 11:03:14 AM 38.9281 -77.1658 221° Southwest 450 518 32,000  Level Washington Center
Wed 11:04:12 AM 38.8328 -77.2733 219° Southwest 455 524 32,000  Level Washington Center
Wed 11:05:13 AM 38.7356 -77.3747 221° Southwest 455 524 32,000  Level Washington Center
Wed 11:06:14 AM 38.6317 -77.4892 220° Southwest 460 529 32,000  Level Washington Center
Wed 11:07:12 AM 38.5361 -77.5931 225° Southwest 459 528 32,000  Level Washington Center
Wed 11:08:12 AM 38.4486 -77.7047 227° Southwest 459 528 32,000  Level Washington Center
Wed 11:09:12 AM 38.3675 -77.8161 225° Southwest 447 514 32,000  Level Washington Center
Wed 11:10:13 AM 38.2797 -77.9272 226° Southwest 442 509 32,000  Level Washington Center
Wed 11:11:14 AM 38.1942 -78.0383 225° Southwest 447 514 32,000  Level Washington Center
Wed 11:12:12 AM 38.1086 -78.1489 225° Southwest 447 514 32,000  Level Washington Center
Wed 11:13:12 AM 38.0228 -78.2594 228° Southwest 447 514 32,000  Level Washington Center
Wed 11:14:13 AM 37.9517 -78.3594 223° Southwest 442 509 32,000  Level Washington Center
Wed 11:15:14 AM 37.8508 -78.4767 220° Southwest 442 509 32,000  Level Washington Center
Wed 11:16:12 AM 37.7544 -78.5783 219° Southwest 447 514 32,000  Level Washington Center
Wed 11:17:12 AM 37.6558 -78.6792 218° Southwest 457 526 32,000  Level Washington Center
Wed 11:18:12 AM 37.5553 -78.7800 218° Southwest 464 534 32,000  Level Washington Center
Wed 11:19:13 AM 37.4567 -78.8778 218° Southwest 464 534 32,000  Level Washington Center
Wed 11:20:14 AM 37.3667 -78.9656 219° Southwest 464 534 32,000  Level Washington Center
Wed 11:21:11 AM 37.2678 -79.0656 219° Southwest 464 534 32,000  Level Washington Center
Wed 11:22:12 AM 37.1689 -79.1653 217° Southwest 464 534 32,000  Level Washington Center
Wed 11:23:12 AM 37.0678 -79.2619 219° Southwest 464 534 32,000 -446 Level Washington Center
Wed 11:24:13 AM 36.9689 -79.3639 219° Southwest 464 534 31,100 -885 Descending Washington Center
Wed 11:25:14 AM 36.8697 -79.4631 218° Southwest 464 534 30,200 -807 Descending Washington Center
Wed 11:26:12 AM 36.7575 -79.5739 217° Southwest 464 534 29,500 -857 Descending Washington Center
Wed 11:27:13 AM 36.6561 -79.6697 219° Southwest 464 534 28,500 -942 Descending Washington Center
Wed 11:28:13 AM 36.5547 -79.7706 218° Southwest 464 534 27,600 -1,815 Descending Washington Center
Wed 11:30:28 AM 36.3497 -79.9711 217° Southwest 449 517 22,600 -1,723 Descending Atlanta Center
Wed 11:31:28 AM 36.2586 -80.0556 214° Southwest 433 498 22,000 -1,100 Descending Atlanta Center
Wed 11:32:28 AM 36.1569 -80.1403 236° Southwest 412 474 20,400 -1,300 Descending Atlanta Center
Wed 11:33:28 AM 36.1058 -80.2353 256° West 367 422 19,400 -1,400 Descending Atlanta Center
Wed 11:34:28 AM 36.0858 -80.3336 254° West 328 377 17,600 -1,750 Descending Atlanta Center
Wed 11:35:28 AM 36.0636 -80.4272 196° South 304 350 15,900 -1,800 Descending Atlanta Center
Wed 11:36:28 AM 35.9872 -80.4536 176° South 280 322 14,000 -1,235 Descending Atlanta Center
Wed 11:37:44 AM 35.8597 -80.4439 193° South 340 391 13,100 -500 Descending Atlanta Center
Wed 11:38:28 AM 35.7933 -80.4622 194° South 326 375 13,000 -462 Descending Atlanta Center
Wed 11:39:28 AM 35.7169 -80.4861 197° South 326 375 12,300 -1,000 Descending Atlanta Center
Wed 11:40:28 AM 35.6344 -80.5178 195° South 326 375 11,000 -1,200 Descending Atlanta Center
Wed 11:41:28 AM 35.5619 -80.5414 198° South 288 331 9,900 -1,500 Descending Atlanta Center
Wed 11:42:28 AM 35.4961 -80.5669 223° Southwest 256 295 8,000 -1,400 Descending Atlanta Center
Wed 11:43:28 AM 35.4514 -80.6175 227° Southwest 230 265 7,100 -1,050 Descending Atlanta Center
Wed 11:44:28 AM 35.4111 -80.6700 225° Southwest 209 241 5,900 -1,250 Descending Atlanta Center
Wed 11:45:28 AM 35.3769 -80.7122 230° Southwest 190 219 4,600 -1,086 Descending Atlanta Center
Wed 11:46:13 AM 35.3578 -80.7403 233° Southwest 174 200 4,000 -424 Descending FAA TRACON SMA TRACON (SMA)
Wed 11:46:53 AM 35.3403 -80.7692 230° Southwest 160 184 4,000 -75 Level FAA TRACON SMA TRACON (SMA)
Wed 11:47:33 AM 35.3236 -80.7933 225° Southwest 154 177 3,900 -675 Descending FAA TRACON SMA TRACON (SMA)
Wed 11:48:13 AM 35.3022 -80.8200 225° Southwest 156 180 3,100 -1,200 Descending FAA TRACON SMA TRACON (SMA)

Login

Don't have an account? Register now (free) for customized features, flight alerts, and more!